Hewittville, New York
Current Conditions -  °F | °C
As of 11:53 PM on Friday 24 Oct 2014 (Local Time) from KMSS Reporting Station
Few Clouds Few Clouds  
Wind Chill: 42°   Ceiling: Unl
Heat Index: 46°   Visibility: 10mi
Dew Point: 43°   Wind: 8mph
Humidity: 89%   Direction: 220°SW
Pressure: 29.83"   Gusts: NA
Location:  44.7612°N, 74.9585°W
Report Text: KMSS 250353Z AUTO 22007KT 10SM FEW100 08/06 A2983 RMK AO2 SLP103 T00780061
Loading
Personal Weather Stations






























Interactive Weather Map
Tropical Storm Tracking
New forecast layout! Learn more

10-Day Weather Forecast

Advertisements
Track Severe Weather on mobile